createdAt,value
2023-04-05T00:00:15.888Z,-3.09
2023-04-05T00:03:24.346Z,-3.19
2023-04-05T00:06:33.502Z,-3.27
2023-04-05T00:09:38.990Z,-3.32
2023-04-05T00:12:45.392Z,-3.38
2023-04-05T00:15:52.524Z,-3.39
2023-04-05T00:19:02.400Z,-3.46
2023-04-05T00:22:11.516Z,-3.51
2023-04-05T00:25:17.796Z,-3.55
2023-04-05T00:28:23.485Z,-3.53
2023-04-05T00:31:29.770Z,-3.53
2023-04-05T00:34:39.041Z,-3.50
2023-04-05T00:37:46.860Z,-3.42
2023-04-05T00:40:52.397Z,-3.36
2023-04-05T00:44:00.161Z,-3.32
2023-04-05T00:47:06.868Z,-3.37
2023-04-05T00:50:16.568Z,-3.42
2023-04-05T00:53:23.870Z,-3.45
2023-04-05T00:56:31.255Z,-3.51
2023-04-05T00:59:36.705Z,-3.52
2023-04-05T01:02:52.196Z,-3.53
2023-04-05T01:06:20.048Z,-3.50
2023-04-05T01:09:43.988Z,-3.49
2023-04-05T01:12:51.295Z,-3.44
2023-04-05T01:15:56.778Z,-3.39
2023-04-05T01:19:04.477Z,-3.37
2023-04-05T01:22:59.803Z,-3.27
2023-04-05T01:27:02.890Z,-3.22
2023-04-05T01:30:23.851Z,-3.16
2023-04-05T01:33:47.521Z,-3.09
2023-04-05T01:36:59.341Z,-3.03
2023-04-05T01:40:08.857Z,-2.98
2023-04-05T01:43:19.377Z,-3.20
2023-04-05T01:46:28.612Z,-2.96
2023-04-05T01:49:34.186Z,-2.91
2023-04-05T01:52:41.041Z,-2.85
2023-04-05T01:55:46.638Z,-2.74
2023-04-05T01:58:53.003Z,-2.59
2023-04-05T02:02:01.537Z,-2.51
2023-04-05T02:05:08.582Z,-2.48
2023-04-05T02:08:14.970Z,-2.43
2023-04-05T02:11:21.494Z,-2.38
2023-04-05T02:14:28.632Z,-2.43
2023-04-05T02:17:39.577Z,-2.47
2023-04-05T02:20:45.241Z,-2.45
2023-04-05T02:23:51.568Z,-2.41
2023-04-05T02:26:57.009Z,-2.34
2023-04-05T02:30:04.761Z,-2.32
2023-04-05T02:33:13.024Z,-2.39
2023-04-05T02:36:19.459Z,-2.39
2023-04-05T02:39:25.208Z,-2.46
2023-04-05T02:42:31.540Z,-2.53
2023-04-05T02:45:37.169Z,-2.46
2023-04-05T02:48:47.627Z,-2.41
2023-04-05T02:51:56.152Z,-2.35
2023-04-05T02:55:02.991Z,-2.35
2023-04-05T02:58:10.494Z,-2.42
2023-04-05T03:01:24.286Z,-2.51
2023-04-05T03:04:34.677Z,-2.57
2023-04-05T03:07:42.888Z,-2.64
2023-04-05T03:10:51.327Z,-2.66
2023-04-05T03:13:57.656Z,-2.72
2023-04-05T03:17:24.258Z,-2.84
2023-04-05T03:20:41.773Z,-2.95
2023-04-05T03:23:55.620Z,-3.04
2023-04-05T03:27:08.086Z,-3.06
2023-04-05T03:30:21.634Z,-3.04
2023-04-05T03:33:34.270Z,-3.00
2023-04-05T03:36:48.047Z,-2.96
2023-04-05T03:40:15.321Z,-2.95
2023-04-05T03:43:20.768Z,-2.91
2023-04-05T03:46:27.448Z,-2.88
2023-04-05T03:49:32.996Z,-2.82
2023-04-05T03:52:42.189Z,-2.76
2023-04-05T03:55:49.723Z,-2.69
2023-04-05T03:58:59.528Z,-2.66
2023-04-05T04:02:08.008Z,-2.69
2023-04-05T04:05:15.982Z,-2.67
2023-04-05T04:08:25.249Z,-2.78
2023-04-05T04:11:31.720Z,-2.80
2023-04-05T04:14:40.673Z,-2.84
2023-04-05T04:18:28.078Z,-2.81
2023-04-05T04:22:20.851Z,-2.78
2023-04-05T04:25:50.916Z,-2.77
2023-04-05T04:29:13.159Z,-2.87
2023-04-05T04:32:58.311Z,-2.82
2023-04-05T04:36:13.928Z,-2.78
2023-04-05T04:40:06.806Z,-2.81
2023-04-05T04:43:34.206Z,-2.84
2023-04-05T04:46:55.271Z,-2.87
2023-04-05T04:50:20.169Z,-2.85
2023-04-05T04:53:26.549Z,-2.90
2023-04-05T04:56:32.147Z,-2.96
2023-04-05T04:59:42.480Z,-3.00
2023-04-05T05:02:48.224Z,-3.05
2023-04-05T05:05:57.327Z,-3.09
2023-04-05T05:09:08.835Z,-3.11
2023-04-05T05:12:27.023Z,-3.17
2023-04-05T05:15:35.303Z,-3.10
2023-04-05T05:18:43.499Z,-3.03
2023-04-05T05:21:50.409Z,-2.97
2023-04-05T05:24:56.761Z,-2.85
2023-04-05T05:28:02.261Z,-2.72
2023-04-05T05:31:12.473Z,-2.52
2023-04-05T05:34:18.010Z,-2.32
2023-04-05T05:37:34.403Z,-2.10
2023-04-05T05:40:39.990Z,-1.91
2023-04-05T05:43:47.247Z,-1.79
2023-04-05T05:46:55.583Z,-1.68
2023-04-05T05:50:04.328Z,-1.65
2023-04-05T05:53:09.885Z,-1.67
2023-04-05T05:56:22.298Z,-1.71
2023-04-05T05:59:28.114Z,-1.75
2023-04-05T06:02:37.407Z,-1.77
2023-04-05T06:05:44.113Z,-1.73
2023-04-05T06:08:51.602Z,-1.69
2023-04-05T06:11:58.779Z,-1.67
2023-04-05T06:15:06.089Z,-1.74
2023-04-05T06:18:14.653Z,-1.73
2023-04-05T06:21:21.038Z,-1.69
2023-04-05T06:24:26.744Z,-1.65
2023-04-05T06:27:33.129Z,-1.62
2023-04-05T06:30:38.691Z,-1.57
2023-04-05T06:33:48.272Z,-1.58
2023-04-05T06:36:53.809Z,-1.61
2023-04-05T06:40:00.244Z,-1.59
2023-04-05T06:43:05.717Z,-1.59
2023-04-05T06:46:14.040Z,-1.52
2023-04-05T06:49:22.398Z,-1.59
2023-04-05T06:52:28.710Z,-1.56
2023-04-05T06:55:34.286Z,-1.57
2023-04-05T06:58:40.800Z,-1.52
2023-04-05T07:01:46.495Z,-1.47
2023-04-05T07:05:00.822Z,-1.37
2023-04-05T07:08:06.308Z,-1.21
2023-04-05T07:11:12.719Z,-1.09
2023-04-05T07:14:18.357Z,-0.95
2023-04-05T07:17:24.999Z,-0.79
2023-04-05T07:20:33.308Z,-0.81
2023-04-05T07:23:39.895Z,-0.76
2023-04-05T07:26:45.849Z,-0.69
2023-04-05T07:29:52.360Z,-0.61
2023-04-05T07:32:58.815Z,-0.56
2023-04-05T07:36:08.734Z,-0.46
2023-04-05T07:39:14.348Z,-0.40
2023-04-05T07:42:22.098Z,-0.39
2023-04-05T07:45:28.368Z,-0.38
2023-04-05T07:48:35.317Z,-0.35
2023-04-05T07:51:43.828Z,-0.31
2023-04-05T07:54:50.310Z,-0.23
2023-04-05T07:57:55.774Z,-0.08
2023-04-05T08:01:03.874Z,0.02
2023-04-05T08:04:09.441Z,0.06
2023-04-05T08:07:18.874Z,0.03
2023-04-05T08:10:24.371Z,-0.02
2023-04-05T08:13:30.712Z,0.09
2023-04-05T08:16:36.916Z,-0.38
2023-04-05T08:19:43.448Z,0.25
2023-04-05T08:22:51.764Z,0.32
2023-04-05T08:25:58.286Z,0.57
2023-04-05T08:29:04.166Z,0.49
2023-04-05T08:32:10.849Z,0.48
2023-04-05T08:35:16.779Z,0.36
2023-04-05T08:38:26.777Z,0.66
2023-04-05T08:41:43.946Z,0.55
2023-04-05T08:44:55.870Z,0.83
2023-04-05T08:48:02.295Z,0.77
2023-04-05T08:51:09.544Z,0.95
2023-04-05T08:54:17.942Z,0.96
2023-04-05T08:57:30.121Z,1.06
2023-04-05T09:00:37.163Z,0.98
2023-04-05T09:03:47.517Z,0.01
2023-04-05T09:06:55.327Z,1.07
2023-04-05T09:10:09.715Z,0.85
2023-04-05T09:13:15.252Z,0.84
2023-04-05T09:16:24.248Z,0.97
2023-04-05T09:19:29.730Z,0.90
2023-04-05T09:22:47.309Z,0.68
2023-04-05T09:25:55.661Z,0.67
2023-04-05T09:29:02.377Z,0.52
2023-04-05T09:32:09.970Z,0.39
2023-04-05T09:35:24.467Z,0.37
2023-04-05T09:38:51.523Z,0.45
2023-04-05T09:42:12.148Z,0.63
2023-04-05T09:45:22.739Z,0.48
2023-04-05T09:48:50.621Z,0.75
2023-04-05T09:51:56.393Z,0.65
2023-04-05T09:55:07.078Z,0.45
2023-04-05T09:58:25.199Z,0.74
2023-04-05T10:01:34.512Z,0.72
2023-04-05T10:04:44.452Z,0.76
2023-04-05T10:07:51.238Z,0.92
2023-04-05T10:10:59.664Z,1.17
2023-04-05T10:14:11.537Z,0.85
2023-04-05T10:17:28.042Z,0.96
2023-04-05T10:20:43.421Z,1.64
2023-04-05T10:23:58.278Z,1.54
2023-04-05T10:27:12.205Z,1.57
2023-04-05T10:30:22.135Z,1.53
2023-04-05T10:33:42.349Z,1.41
2023-04-05T10:37:00.343Z,1.35
2023-04-05T10:40:12.969Z,1.50
2023-04-05T10:43:27.067Z,1.61
2023-04-05T10:46:37.403Z,1.57
2023-04-05T10:49:49.566Z,1.38
2023-04-05T10:52:57.028Z,1.32
2023-04-05T10:56:04.650Z,1.34
2023-04-05T10:59:15.314Z,1.35
2023-04-05T11:02:24.790Z,1.32
2023-04-05T11:05:36.646Z,1.31
2023-04-05T11:08:47.172Z,1.54
2023-04-05T11:11:57.297Z,1.67
2023-04-05T11:15:33.522Z,1.71
2023-04-05T11:18:49.611Z,1.84
2023-04-05T11:22:05.670Z,1.84
2023-04-05T11:25:28.119Z,1.82
2023-04-05T11:28:40.826Z,1.68
2023-04-05T11:32:02.603Z,1.82
2023-04-05T11:35:23.260Z,2.04
2023-04-05T11:38:29.823Z,2.30
2023-04-05T11:41:37.599Z,2.51
2023-04-05T11:44:48.749Z,2.74
2023-04-05T11:47:54.779Z,2.93
2023-04-05T11:51:05.032Z,2.76
2023-04-05T11:54:10.866Z,2.67
2023-04-05T11:57:22.660Z,2.66
2023-04-05T12:00:28.516Z,2.36
2023-04-05T12:03:35.412Z,2.53
2023-04-05T12:06:43.912Z,2.63
2023-04-05T12:10:11.979Z,2.30
2023-04-05T12:13:17.473Z,2.59
2023-04-05T12:16:23.924Z,2.30
2023-04-05T12:19:34.221Z,2.33
2023-04-05T12:22:46.582Z,2.22
2023-04-05T12:25:54.384Z,2.17
2023-04-05T12:29:03.054Z,2.13
2023-04-05T12:32:09.315Z,2.22
2023-04-05T12:35:18.855Z,2.42
2023-04-05T12:38:30.503Z,2.64
2023-04-05T12:41:37.772Z,2.89
2023-04-05T12:44:46.889Z,3.14
2023-04-05T12:47:56.724Z,3.22
2023-04-05T12:51:07.338Z,3.24
2023-04-05T12:54:24.112Z,3.28
2023-04-05T12:57:35.036Z,3.17
2023-04-05T13:00:41.729Z,3.14
2023-04-05T13:03:49.649Z,3.09
2023-04-05T13:06:56.659Z,3.06
2023-04-05T13:10:05.256Z,2.93
2023-04-05T13:13:11.639Z,2.97
2023-04-05T13:16:17.257Z,3.13
2023-04-05T13:19:23.961Z,3.29
2023-04-05T13:22:29.533Z,3.48
2023-04-05T13:25:39.555Z,3.47
2023-04-05T13:28:45.459Z,3.37
2023-04-05T13:31:51.991Z,3.34
2023-04-05T13:34:57.589Z,3.28
2023-04-05T13:38:04.793Z,3.21
2023-04-05T13:41:16.226Z,3.19
2023-04-05T13:44:22.980Z,3.15
2023-04-05T13:47:28.505Z,3.24
2023-04-05T13:50:35.057Z,3.42
2023-04-05T13:53:40.615Z,3.56
2023-04-05T13:56:49.817Z,3.74
2023-04-05T13:59:55.488Z,3.54
2023-04-05T14:03:02.004Z,3.46
2023-04-05T14:06:10.705Z,3.56
2023-04-05T14:09:17.060Z,3.42
2023-04-05T14:12:25.592Z,3.38
2023-04-05T14:15:33.465Z,3.44
2023-04-05T14:18:39.229Z,3.47
2023-04-05T14:21:46.082Z,3.50
2023-04-05T14:24:51.713Z,3.42
2023-04-05T14:28:01.129Z,3.37
2023-04-05T14:31:07.070Z,3.43
2023-04-05T14:34:13.995Z,3.44
2023-04-05T14:37:20.097Z,3.57
2023-04-05T14:40:26.698Z,3.78
2023-04-05T14:43:35.269Z,4.01
2023-04-05T14:46:41.788Z,4.20
2023-04-05T14:49:47.453Z,4.29
2023-04-05T14:52:55.646Z,4.34
2023-04-05T14:56:01.399Z,4.26
2023-04-05T14:59:10.762Z,4.22
2023-04-05T15:02:17.031Z,4.29
2023-04-05T15:05:23.976Z,4.37
2023-04-05T15:08:29.948Z,4.35
2023-04-05T15:11:38.885Z,4.48
2023-04-05T15:14:49.032Z,4.42
2023-04-05T15:17:55.593Z,4.36
2023-04-05T15:21:01.766Z,4.18
2023-04-05T15:24:10.506Z,4.12
2023-04-05T15:27:16.254Z,3.89
2023-04-05T15:30:25.712Z,3.89
2023-04-05T15:33:31.433Z,3.96
2023-04-05T15:36:37.887Z,3.83
2023-04-05T15:39:43.641Z,3.85
2023-04-05T15:42:50.326Z,3.84
2023-04-05T15:45:58.761Z,3.90
2023-04-05T15:49:05.387Z,3.91
2023-04-05T15:52:11.697Z,3.82
2023-04-05T15:55:18.186Z,3.88
2023-04-05T15:58:23.990Z,3.96
2023-04-05T16:01:33.787Z,3.96
2023-04-05T16:04:39.763Z,3.68
2023-04-05T16:07:46.484Z,3.74
2023-04-05T16:10:52.420Z,3.76
2023-04-05T16:13:58.989Z,3.94
2023-04-05T16:17:07.558Z,4.03
2023-04-05T16:20:15.033Z,3.99
2023-04-05T16:23:20.726Z,3.90
2023-04-05T16:26:27.557Z,3.94
2023-04-05T16:29:33.452Z,3.87
2023-04-05T16:32:42.875Z,3.83
2023-04-05T16:35:48.985Z,3.83
2023-04-05T16:38:55.501Z,3.66
2023-04-05T16:42:01.275Z,3.61
2023-04-05T16:45:09.578Z,3.54
2023-04-05T16:48:17.993Z,3.48
2023-04-05T16:51:24.522Z,3.35
2023-04-05T16:54:30.299Z,3.27
2023-04-05T16:57:37.543Z,3.23
2023-04-05T17:00:43.969Z,3.09
2023-04-05T17:03:53.375Z,3.07
2023-04-05T17:06:59.306Z,2.97
2023-04-05T17:10:05.845Z,2.80
2023-04-05T17:13:11.863Z,2.63
2023-04-05T17:16:18.515Z,2.50
2023-04-05T17:19:27.764Z,2.45
2023-04-05T17:22:34.663Z,2.34
2023-04-05T17:25:40.291Z,2.18
2023-04-05T17:28:47.436Z,2.07
2023-04-05T17:31:53.842Z,1.91
2023-04-05T17:35:03.241Z,1.76
2023-04-05T17:38:08.945Z,1.65
2023-04-05T17:41:16.008Z,1.66
2023-04-05T17:44:21.669Z,1.62
2023-04-05T17:47:28.358Z,1.58
2023-04-05T17:50:39.040Z,1.55
2023-04-05T17:53:45.797Z,1.62
2023-04-05T17:56:52.252Z,1.58
2023-04-05T17:59:59.534Z,1.59
2023-04-05T18:03:08.237Z,1.64
2023-04-05T18:06:20.316Z,1.62
2023-04-05T18:09:26.508Z,1.68
2023-04-05T18:12:32.991Z,1.69
2023-04-05T18:15:38.752Z,1.67
2023-04-05T18:18:45.264Z,1.55
2023-04-05T18:21:54.030Z,1.49
2023-04-05T18:25:00.569Z,1.41
2023-04-05T18:28:15.773Z,1.28
2023-04-05T18:31:28.869Z,1.15
2023-04-05T18:34:35.010Z,0.96
2023-04-05T18:37:44.383Z,0.90
2023-04-05T18:40:50.754Z,0.90
2023-04-05T18:43:57.626Z,0.81
2023-04-05T18:47:05.108Z,0.78
2023-04-05T18:50:13.015Z,0.76
2023-04-05T18:53:21.668Z,0.67
2023-04-05T18:56:30.129Z,0.62
2023-04-05T18:59:35.856Z,0.50
2023-04-05T19:02:42.433Z,0.45
2023-04-05T19:05:53.721Z,0.34
2023-04-05T19:09:03.300Z,0.27
2023-04-05T19:12:09.888Z,0.25
2023-04-05T19:15:17.213Z,0.26
2023-04-05T19:18:26.170Z,0.22
2023-04-05T19:21:32.689Z,0.16
2023-04-05T19:24:43.629Z,-0.74
2023-04-05T19:27:50.673Z,0.13
2023-04-05T19:30:57.068Z,0.12
2023-04-05T19:34:03.752Z,0.12
2023-04-05T19:37:09.951Z,0.09
2023-04-05T19:40:19.725Z,0.04
2023-04-05T19:43:26.798Z,0.05
2023-04-05T19:46:34.082Z,0.02
2023-04-05T19:49:44.579Z,-0.37
2023-04-05T19:52:51.945Z,-0.02
2023-04-05T19:56:00.461Z,-0.01
2023-04-05T19:59:31.461Z,0.00
2023-04-05T20:02:40.194Z,0.00
2023-04-05T20:06:13.053Z,-0.05
2023-04-05T20:09:18.897Z,-0.04
2023-04-05T20:12:28.306Z,-0.07
2023-04-05T20:15:39.869Z,-0.10
2023-04-05T20:18:50.996Z,-0.13
2023-04-05T20:21:56.679Z,-0.15
2023-04-05T20:25:04.931Z,-0.18
2023-04-05T20:28:39.012Z,-0.23
2023-04-05T20:31:46.331Z,-0.28
2023-04-05T20:34:52.314Z,-0.32
2023-04-05T20:37:59.201Z,-0.35
2023-04-05T20:41:05.912Z,-0.36
2023-04-05T20:44:15.286Z,-0.42
2023-04-05T20:47:21.174Z,-0.45
2023-04-05T20:50:27.873Z,-0.45
2023-04-05T20:53:34.770Z,-0.44
2023-04-05T20:56:41.311Z,-0.46
2023-04-05T20:59:49.749Z,-0.48
2023-04-05T21:02:56.315Z,-0.49
2023-04-05T21:06:04.240Z,-0.53
2023-04-05T21:09:10.895Z,-0.53
2023-04-05T21:12:16.671Z,-0.54
2023-04-05T21:15:31.283Z,-0.57
2023-04-05T21:18:37.233Z,-0.55
2023-04-05T21:21:44.005Z,-0.56
2023-04-05T21:24:49.935Z,-0.58
2023-04-05T21:27:56.743Z,-0.58
2023-04-05T21:31:05.277Z,-0.59
2023-04-05T21:34:11.784Z,-0.62
2023-04-05T21:37:17.465Z,-0.65
2023-04-05T21:40:24.736Z,-0.67
2023-04-05T21:43:30.513Z,-0.69
2023-04-05T21:46:40.210Z,-0.69
2023-04-05T21:49:45.921Z,-0.69
2023-04-05T21:52:52.470Z,-0.73
2023-04-05T21:55:58.130Z,-0.76
2023-04-05T21:59:04.658Z,-0.79
2023-04-05T22:02:13.235Z,-0.81
2023-04-05T22:05:34.029Z,-0.80
2023-04-05T22:08:42.645Z,-0.82
2023-04-05T22:11:49.311Z,-0.82
2023-04-05T22:14:55.016Z,-0.86
2023-04-05T22:18:05.876Z,-0.84
2023-04-05T22:21:11.706Z,-0.86
2023-04-05T22:24:18.426Z,-0.90
2023-04-05T22:27:24.093Z,-0.93
2023-04-05T22:30:42.803Z,-0.97
2023-04-05T22:33:51.960Z,-1.03
2023-04-05T22:36:58.474Z,-1.07
2023-04-05T22:40:04.329Z,-1.14
2023-04-05T22:43:12.095Z,-1.20
2023-04-05T22:46:17.709Z,-1.30
2023-04-05T22:49:27.179Z,-1.40
2023-04-05T22:52:32.819Z,-1.47
2023-04-05T22:55:40.387Z,-1.49
2023-04-05T22:58:46.080Z,-1.49
2023-04-05T23:01:52.632Z,-1.49
2023-04-05T23:05:01.882Z,-1.48
2023-04-05T23:08:09.020Z,-1.54
2023-04-05T23:11:14.918Z,-1.61
2023-04-05T23:14:21.382Z,-1.56
2023-04-05T23:17:27.242Z,-1.57
2023-04-05T23:20:36.633Z,-1.58
2023-04-05T23:23:42.231Z,-1.59
2023-04-05T23:26:48.954Z,-1.61
2023-04-05T23:29:54.612Z,-1.65
2023-04-05T23:33:01.479Z,-1.67
2023-04-05T23:36:11.917Z,-1.70
2023-04-05T23:39:19.578Z,-1.72
2023-04-05T23:42:25.216Z,-1.72
2023-04-05T23:45:31.710Z,-1.75
2023-04-05T23:48:37.512Z,-1.85
2023-04-05T23:51:46.851Z,-1.96
2023-04-05T23:54:52.547Z,-2.03
2023-04-05T23:58:00.413Z,-2.11
